Aéroclub Cannes UACA

Aéroclub Cannes UACA
UACA
Approuvé A.T.O. EASA – N°FR.ATO.0108

UACA, UNION des aéroclubs
Cannes “Ailes d’Azur”, Nice “Côte d’Azur”, Grasse “St Exupery”, ACCA “Francis Séverac”

Un cache-pitot se trouve à bord de chaque avion. Pensez à le mettre en place à la fin de chaque vol !

Avant de quitter l'avion, vérifiez que vous n'emportez pas la checklist

Un vol ne s'entreprend qu'avec un pare-brise parfaitement propre, il en va de votre sécurité, et de celle des autres

Après chaque vol, merci de mettre en place les pares-soleil!


Météo à Cannes:
METAR
LFMD 201730Z AUTO 03005KT 320V080 9999 -TSRA SCT062/// BKN072/// OVC092/// ///CB 22/17 Q1014 BECMG NSW NSC =
AMD LFMD 201628Z 2016/2115 15006KT CAVOK PROB40 TEMPO 2016/2018 -TSRA SCT060CB TEMPO 2111/2115 11010KT

TAF
AMD LFMD 201628Z 2016/2115 15006KT CAVOK PROB40 TEMPO 2016/2018 -TSRA SCT060CB TEMPO 2111/2115 11010KT =

SR / SS: 05:17 / 17:34 UTC (LFMD 2021-09-20)